createdAt,value
2023-11-21T00:00:04.431Z,5.83
2023-11-21T00:03:00.243Z,5.80
2023-11-21T00:05:27.289Z,5.79
2023-11-21T00:07:54.564Z,5.76
2023-11-21T00:10:21.489Z,5.75
2023-11-21T00:12:49.435Z,5.73
2023-11-21T00:15:16.532Z,5.70
2023-11-21T00:17:44.345Z,5.66
2023-11-21T00:20:14.683Z,5.69
2023-11-21T00:22:42.720Z,5.67
2023-11-21T00:25:10.295Z,5.62
2023-11-21T00:27:37.856Z,5.59
2023-11-21T00:30:08.589Z,5.63
2023-11-21T00:32:39.303Z,5.68
2023-11-21T00:35:07.234Z,5.69
2023-11-21T00:37:34.832Z,5.76
2023-11-21T00:40:05.977Z,5.71
2023-11-21T00:42:40.379Z,5.65
2023-11-21T00:45:07.704Z,5.62
2023-11-21T00:47:35.155Z,5.57
2023-11-21T00:50:02.366Z,5.54
2023-11-21T00:52:29.644Z,5.45
2023-11-21T00:54:56.615Z,5.44
2023-11-21T00:57:23.956Z,5.45
2023-11-21T00:59:50.936Z,5.50
2023-11-21T01:02:18.107Z,5.55
2023-11-21T01:04:49.185Z,5.58
2023-11-21T01:07:16.647Z,5.71
2023-11-21T01:09:45.429Z,5.73
2023-11-21T01:12:12.706Z,5.78
2023-11-21T01:14:40.926Z,5.89
2023-11-21T01:17:08.396Z,6.17
2023-11-21T01:19:35.489Z,6.18
2023-11-21T01:22:02.876Z,6.17
2023-11-21T01:24:29.919Z,6.08
2023-11-21T01:26:57.448Z,6.08
2023-11-21T01:29:24.642Z,6.07
2023-11-21T01:31:53.286Z,6.04
2023-11-21T01:34:22.546Z,6.00
2023-11-21T01:36:49.961Z,6.03
2023-11-21T01:39:17.709Z,6.05
2023-11-21T01:41:47.918Z,6.06
2023-11-21T01:44:14.885Z,6.06
2023-11-21T01:46:42.953Z,6.06
2023-11-21T01:49:14.241Z,6.08
2023-11-21T01:51:42.868Z,6.13
2023-11-21T01:54:16.956Z,6.18
2023-11-21T01:56:47.202Z,6.26
2023-11-21T01:59:19.444Z,6.42
2023-11-21T02:01:51.693Z,6.51
2023-11-21T02:04:20.546Z,6.53
2023-11-21T02:06:48.271Z,6.56
2023-11-21T02:09:16.629Z,6.59
2023-11-21T02:11:44.114Z,6.65
2023-11-21T02:14:10.971Z,6.66
2023-11-21T02:16:38.218Z,6.65
2023-11-21T02:19:10.348Z,6.66
2023-11-21T02:21:41.619Z,6.63
2023-11-21T02:24:11.530Z,6.62
2023-11-21T02:26:42.250Z,6.62
2023-11-21T02:29:12.111Z,6.59
2023-11-21T02:31:48.960Z,6.60
2023-11-21T02:34:17.312Z,6.60
2023-11-21T02:36:50.619Z,6.53
2023-11-21T02:39:18.253Z,6.58
2023-11-21T02:41:45.792Z,6.51
2023-11-21T02:44:12.724Z,6.46
2023-11-21T02:46:42.426Z,6.33
2023-11-21T02:49:14.322Z,6.27
2023-11-21T02:51:41.611Z,6.24
2023-11-21T02:54:09.824Z,6.13
2023-11-21T02:56:37.119Z,6.06
2023-11-21T02:59:04.135Z,5.93
2023-11-21T03:01:31.558Z,5.88
2023-11-21T03:03:58.739Z,5.82
2023-11-21T03:06:26.112Z,5.73
2023-11-21T03:08:53.069Z,5.72
2023-11-21T03:11:20.859Z,5.63
2023-11-21T03:13:48.075Z,5.63
2023-11-21T03:16:15.943Z,5.74
2023-11-21T03:18:43.018Z,5.75
2023-11-21T03:21:10.204Z,5.84
2023-11-21T03:23:37.338Z,5.95
2023-11-21T03:26:05.316Z,5.98
2023-11-21T03:28:32.473Z,6.00
2023-11-21T03:30:59.840Z,6.04
2023-11-21T03:33:26.831Z,6.11
2023-11-21T03:35:54.310Z,6.12
2023-11-21T03:38:21.681Z,6.25
2023-11-21T03:40:50.534Z,6.30
2023-11-21T03:43:19.876Z,6.30
2023-11-21T03:45:47.274Z,6.27
2023-11-21T03:48:14.426Z,6.32
2023-11-21T03:50:44.259Z,6.42
2023-11-21T03:53:11.185Z,6.45
2023-11-21T03:55:38.458Z,6.49
2023-11-21T03:58:05.443Z,6.49
2023-11-21T04:00:35.144Z,6.56
2023-11-21T04:03:02.147Z,6.51
2023-11-21T04:05:29.660Z,6.58
2023-11-21T04:07:56.676Z,6.62
2023-11-21T04:10:23.921Z,6.66
2023-11-21T04:12:50.899Z,6.64
2023-11-21T04:15:18.559Z,6.69
2023-11-21T04:17:46.686Z,6.68
2023-11-21T04:20:16.559Z,6.69
2023-11-21T04:22:47.432Z,6.67
2023-11-21T04:25:16.113Z,6.58
2023-11-21T04:27:46.279Z,6.53
2023-11-21T04:30:14.233Z,6.44
2023-11-21T04:32:41.426Z,6.34
2023-11-21T04:35:10.156Z,6.26
2023-11-21T04:37:39.816Z,6.29
2023-11-21T04:40:08.451Z,6.24
2023-11-21T04:42:37.058Z,6.18
2023-11-21T04:45:09.515Z,6.23
2023-11-21T04:47:37.312Z,6.30
2023-11-21T04:50:05.375Z,6.24
2023-11-21T04:52:32.435Z,6.24
2023-11-21T04:54:59.977Z,6.21
2023-11-21T04:57:26.963Z,6.14
2023-11-21T04:59:56.732Z,6.06
2023-11-21T05:02:31.189Z,6.02
2023-11-21T05:05:07.314Z,6.03
2023-11-21T05:07:37.252Z,6.11
2023-11-21T05:10:12.529Z,6.19
2023-11-21T05:12:39.727Z,6.22
2023-11-21T05:15:14.138Z,6.19
2023-11-21T05:17:44.489Z,6.26
2023-11-21T05:20:14.347Z,6.26
2023-11-21T05:22:43.263Z,6.24
2023-11-21T05:25:10.813Z,6.27
2023-11-21T05:27:37.960Z,6.25
2023-11-21T05:30:14.054Z,6.34
2023-11-21T05:32:48.139Z,6.31
2023-11-21T05:35:17.850Z,6.33
2023-11-21T05:37:46.931Z,6.27
2023-11-21T05:40:16.754Z,6.29
2023-11-21T05:42:44.146Z,6.28
2023-11-21T05:45:12.620Z,6.29
2023-11-21T05:47:42.545Z,6.18
2023-11-21T05:50:15.972Z,6.19
2023-11-21T05:52:44.068Z,6.20
2023-11-21T05:55:11.895Z,6.26
2023-11-21T05:57:39.627Z,6.31
2023-11-21T06:00:17.147Z,6.39
2023-11-21T06:02:44.445Z,6.34
2023-11-21T06:05:11.994Z,6.30
2023-11-21T06:07:39.843Z,6.27
2023-11-21T06:10:10.482Z,6.24
2023-11-21T06:12:37.490Z,6.29
2023-11-21T06:15:06.456Z,6.30
2023-11-21T06:17:39.130Z,6.35
2023-11-21T06:20:10.894Z,6.42
2023-11-21T06:22:42.291Z,6.53
2023-11-21T06:25:10.397Z,6.56
2023-11-21T06:27:40.778Z,6.62
2023-11-21T06:30:09.742Z,6.70
2023-11-21T06:32:37.329Z,6.74
2023-11-21T06:35:05.407Z,6.78
2023-11-21T06:37:33.167Z,6.82
2023-11-21T06:40:01.023Z,6.89
2023-11-21T06:42:28.783Z,6.96
2023-11-21T06:44:58.388Z,7.02
2023-11-21T06:47:31.007Z,7.07
2023-11-21T06:49:59.093Z,7.14
2023-11-21T06:52:28.976Z,7.19
2023-11-21T06:54:56.352Z,7.25
2023-11-21T06:57:26.420Z,7.29
2023-11-21T06:59:53.820Z,7.38
2023-11-21T07:02:20.972Z,7.44
2023-11-21T07:04:51.438Z,7.50
2023-11-21T07:07:19.341Z,7.58
2023-11-21T07:09:50.215Z,7.62
2023-11-21T07:12:24.916Z,7.68
2023-11-21T07:14:52.692Z,7.75
2023-11-21T07:17:20.213Z,7.78
2023-11-21T07:19:47.593Z,7.81
2023-11-21T07:22:15.336Z,7.85
2023-11-21T07:24:45.130Z,7.87
2023-11-21T07:27:12.093Z,7.97
2023-11-21T07:29:41.056Z,8.02
2023-11-21T07:32:10.621Z,8.09
2023-11-21T07:34:38.032Z,8.15
2023-11-21T07:37:05.204Z,8.23
2023-11-21T07:39:32.377Z,8.26
2023-11-21T07:42:01.987Z,8.34
2023-11-21T07:44:29.653Z,8.44
2023-11-21T07:46:59.767Z,8.55
2023-11-21T07:49:28.007Z,8.66
2023-11-21T07:51:55.204Z,8.81
2023-11-21T07:54:22.711Z,8.86
2023-11-21T07:56:49.813Z,8.83
2023-11-21T07:59:18.364Z,8.77
2023-11-21T08:01:46.818Z,8.75
2023-11-21T08:04:14.231Z,8.80
2023-11-21T08:06:43.111Z,8.82
2023-11-21T08:09:11.138Z,8.82
2023-11-21T08:11:40.051Z,8.75
2023-11-21T08:14:07.566Z,8.64
2023-11-21T08:16:34.864Z,8.56
2023-11-21T08:19:02.249Z,8.52
2023-11-21T08:21:30.526Z,8.60
2023-11-21T08:23:58.049Z,8.69
2023-11-21T08:26:25.013Z,8.92
2023-11-21T08:28:53.980Z,9.25
2023-11-21T08:31:27.545Z,9.29
2023-11-21T08:33:57.522Z,9.37
2023-11-21T08:36:29.622Z,9.53
2023-11-21T08:38:56.668Z,9.55
2023-11-21T08:41:24.059Z,9.66
2023-11-21T08:43:52.085Z,9.61
2023-11-21T08:46:19.993Z,9.65
2023-11-21T08:48:47.414Z,9.76
2023-11-21T08:51:15.444Z,9.95
2023-11-21T08:53:42.582Z,10.19
2023-11-21T08:56:13.507Z,10.39
2023-11-21T08:58:40.628Z,10.68
2023-11-21T09:01:08.638Z,10.89
2023-11-21T09:03:36.073Z,11.09
2023-11-21T09:06:04.924Z,11.33
2023-11-21T09:08:32.115Z,11.78
2023-11-21T09:10:59.428Z,11.83
2023-11-21T09:13:26.565Z,11.93
2023-11-21T09:15:53.956Z,11.93
2023-11-21T09:18:20.977Z,11.95
2023-11-21T09:20:48.362Z,11.91
2023-11-21T09:23:15.512Z,11.60
2023-11-21T09:25:42.976Z,11.38
2023-11-21T09:28:09.955Z,11.29
2023-11-21T09:30:37.381Z,11.26
2023-11-21T09:33:06.707Z,11.30
2023-11-21T09:35:34.131Z,11.21
2023-11-21T09:38:02.973Z,11.39
2023-11-21T09:40:32.952Z,11.42
2023-11-21T09:43:00.997Z,11.36
2023-11-21T09:45:30.082Z,11.29
2023-11-21T09:47:57.802Z,11.24
2023-11-21T09:50:29.687Z,11.24
2023-11-21T09:52:59.471Z,11.37
2023-11-21T09:55:30.902Z,11.31
2023-11-21T09:57:58.329Z,11.49
2023-11-21T10:00:33.131Z,11.38
2023-11-21T10:03:03.142Z,11.43
2023-11-21T10:05:30.832Z,11.44
2023-11-21T10:08:00.660Z,11.47
2023-11-21T10:10:33.342Z,11.56
2023-11-21T10:13:04.996Z,11.54
2023-11-21T10:15:32.470Z,11.54
2023-11-21T10:17:59.765Z,11.66
2023-11-21T10:20:26.982Z,11.65
2023-11-21T10:22:53.946Z,11.72
2023-11-21T10:25:21.842Z,11.84
2023-11-21T10:27:51.703Z,12.09
2023-11-21T10:30:19.339Z,12.22
2023-11-21T10:32:49.355Z,12.03
2023-11-21T10:35:19.338Z,11.91
2023-11-21T10:38:00.733Z,11.95
2023-11-21T10:40:30.355Z,12.12
2023-11-21T10:43:07.056Z,12.00
2023-11-21T10:45:35.178Z,11.91
2023-11-21T10:48:02.190Z,11.87
2023-11-21T10:50:31.747Z,11.83
2023-11-21T10:52:58.705Z,11.82
2023-11-21T10:55:27.941Z,11.76
2023-11-21T10:57:56.729Z,11.59
2023-11-21T11:00:28.327Z,11.62
2023-11-21T11:02:56.627Z,11.55
2023-11-21T11:05:25.141Z,11.40
2023-11-21T11:07:56.007Z,11.55
2023-11-21T11:10:27.310Z,11.37
2023-11-21T11:12:54.976Z,11.24
2023-11-21T11:15:24.765Z,11.38
2023-11-21T11:17:51.860Z,11.36
2023-11-21T11:20:20.886Z,11.38
2023-11-21T11:22:53.850Z,11.42
2023-11-21T11:25:26.973Z,11.51
2023-11-21T11:28:15.102Z,11.57
2023-11-21T11:30:56.718Z,11.55
2023-11-21T11:33:35.327Z,11.52
2023-11-21T11:36:13.006Z,11.48
2023-11-21T11:38:40.085Z,11.46
2023-11-21T11:41:10.590Z,11.47
2023-11-21T11:43:46.814Z,11.40
2023-11-21T11:46:14.616Z,11.32
2023-11-21T11:48:41.922Z,11.32
2023-11-21T11:51:15.485Z,11.45
2023-11-21T11:53:43.356Z,11.38
2023-11-21T11:56:24.202Z,11.47
2023-11-21T11:58:54.427Z,11.43
2023-11-21T12:01:22.174Z,11.37
2023-11-21T12:04:09.542Z,11.22
2023-11-21T12:06:41.301Z,11.16
2023-11-21T12:09:08.768Z,11.13
2023-11-21T12:11:38.005Z,11.19
2023-11-21T12:14:06.791Z,11.25
2023-11-21T12:16:34.254Z,11.37
2023-11-21T12:19:03.533Z,11.32
2023-11-21T12:21:31.381Z,11.46
2023-11-21T12:24:01.346Z,11.56
2023-11-21T12:26:30.957Z,11.53
2023-11-21T12:28:57.989Z,11.45
2023-11-21T12:31:26.979Z,11.40
2023-11-21T12:33:57.322Z,11.44
2023-11-21T12:36:26.619Z,11.36
2023-11-21T12:38:53.621Z,11.45
2023-11-21T12:41:22.394Z,11.42
2023-11-21T12:43:49.432Z,11.53
2023-11-21T12:46:18.491Z,11.44
2023-11-21T12:48:46.825Z,11.44
2023-11-21T12:51:17.256Z,11.38
2023-11-21T12:53:44.409Z,11.42
2023-11-21T12:56:14.267Z,11.30
2023-11-21T12:58:46.183Z,11.21
2023-11-21T13:01:19.261Z,11.17
2023-11-21T13:03:49.903Z,11.14
2023-11-21T13:06:18.135Z,11.07
2023-11-21T13:08:47.606Z,10.99
2023-11-21T13:11:15.893Z,11.06
2023-11-21T13:13:46.749Z,11.04
2023-11-21T13:16:16.710Z,11.00
2023-11-21T13:18:44.559Z,10.97
2023-11-21T13:21:14.909Z,10.90
2023-11-21T13:23:43.329Z,10.82
2023-11-21T13:26:11.350Z,10.74
2023-11-21T13:28:39.191Z,10.59
2023-11-21T13:31:27.320Z,10.52
2023-11-21T13:33:57.990Z,10.47
2023-11-21T13:36:26.643Z,10.49
2023-11-21T13:38:55.114Z,10.45
2023-11-21T13:41:29.558Z,10.51
2023-11-21T13:44:15.697Z,10.50
2023-11-21T13:46:44.017Z,10.42
2023-11-21T13:49:11.682Z,10.41
2023-11-21T13:51:46.151Z,10.35
2023-11-21T13:54:13.694Z,10.23
2023-11-21T13:56:42.619Z,10.07
2023-11-21T13:59:24.815Z,9.97
2023-11-21T14:02:13.480Z,9.84
2023-11-21T14:04:55.637Z,9.79
2023-11-21T14:07:47.379Z,9.80
2023-11-21T14:10:15.776Z,9.71
2023-11-21T14:12:44.085Z,9.63
2023-11-21T14:15:18.366Z,9.56
2023-11-21T14:17:46.257Z,9.43
2023-11-21T14:20:17.871Z,9.29
2023-11-21T14:22:46.003Z,9.19
2023-11-21T14:25:16.090Z,9.16
2023-11-21T14:27:46.057Z,9.09
2023-11-21T14:30:14.832Z,9.07
2023-11-21T14:32:43.480Z,9.00
2023-11-21T14:35:10.737Z,9.02
2023-11-21T14:37:38.236Z,9.03
2023-11-21T14:40:05.927Z,9.03
2023-11-21T14:42:34.984Z,8.99
2023-11-21T14:45:05.457Z,8.96
2023-11-21T14:47:35.625Z,8.94
2023-11-21T14:50:21.833Z,8.92
2023-11-21T14:53:00.068Z,8.93
2023-11-21T14:55:33.231Z,8.97
2023-11-21T14:58:05.415Z,8.92
2023-11-21T15:00:52.981Z,8.90
2023-11-21T15:03:32.647Z,8.81
2023-11-21T15:06:02.178Z,8.68
2023-11-21T15:08:33.322Z,8.56
2023-11-21T15:11:08.375Z,8.48
2023-11-21T15:13:35.801Z,8.39
2023-11-21T15:16:09.121Z,8.36
2023-11-21T15:18:36.781Z,8.27
2023-11-21T15:21:06.785Z,8.18
2023-11-21T15:23:36.273Z,8.10
2023-11-21T15:26:06.194Z,7.95
2023-11-21T15:28:34.514Z,7.86
2023-11-21T15:31:02.287Z,7.82
2023-11-21T15:33:29.731Z,7.81
2023-11-21T15:35:56.770Z,7.73
2023-11-21T15:38:25.135Z,7.68
2023-11-21T15:40:52.120Z,7.61
2023-11-21T15:43:22.407Z,7.55
2023-11-21T15:45:52.149Z,7.57
2023-11-21T15:48:19.515Z,7.60
2023-11-21T15:50:48.018Z,7.56
2023-11-21T15:53:17.577Z,7.60
2023-11-21T15:55:44.583Z,7.63
2023-11-21T15:58:11.934Z,7.72
2023-11-21T16:00:42.782Z,7.77
2023-11-21T16:03:13.262Z,7.78
2023-11-21T16:05:41.040Z,7.84
2023-11-21T16:08:08.131Z,7.88
2023-11-21T16:10:37.487Z,7.96
2023-11-21T16:13:04.695Z,8.01
2023-11-21T16:15:32.191Z,8.03
2023-11-21T16:17:59.226Z,8.04
2023-11-21T16:20:27.234Z,8.12
2023-11-21T16:22:55.298Z,8.14
2023-11-21T16:25:22.637Z,8.16
2023-11-21T16:27:49.783Z,8.22
2023-11-21T16:30:17.247Z,8.22
2023-11-21T16:32:44.251Z,8.21
2023-11-21T16:35:13.291Z,8.23
2023-11-21T16:37:40.595Z,8.22
2023-11-21T16:40:10.232Z,8.18
2023-11-21T16:42:39.624Z,8.16
2023-11-21T16:45:09.695Z,8.15
2023-11-21T16:47:37.362Z,8.14
2023-11-21T16:50:05.330Z,8.11
2023-11-21T16:52:32.578Z,8.06
2023-11-21T16:54:59.926Z,8.04
2023-11-21T16:57:29.852Z,8.02
2023-11-21T16:59:57.140Z,7.99
2023-11-21T17:02:24.391Z,7.98
2023-11-21T17:04:51.947Z,7.91
2023-11-21T17:07:21.949Z,7.96
2023-11-21T17:09:51.994Z,7.94
2023-11-21T17:12:19.265Z,7.92
2023-11-21T17:14:49.631Z,7.91
2023-11-21T17:17:17.303Z,7.91
2023-11-21T17:19:45.547Z,7.94
2023-11-21T17:22:12.860Z,7.92
2023-11-21T17:24:40.185Z,7.95
2023-11-21T17:27:08.041Z,7.96
2023-11-21T17:29:36.414Z,7.97
2023-11-21T17:32:06.154Z,7.98
2023-11-21T17:34:36.597Z,7.99
2023-11-21T17:37:04.069Z,7.98
2023-11-21T17:39:31.558Z,7.95
2023-11-21T17:41:58.929Z,7.94
2023-11-21T17:44:28.841Z,7.96
2023-11-21T17:46:55.960Z,7.99
2023-11-21T17:49:23.558Z,7.97
2023-11-21T17:51:50.961Z,7.99
2023-11-21T17:54:19.050Z,8.01
2023-11-21T17:56:47.327Z,8.04
2023-11-21T17:59:17.502Z,8.04
2023-11-21T18:01:45.080Z,8.00
2023-11-21T18:04:12.875Z,7.96
2023-11-21T18:06:40.201Z,7.97
2023-11-21T18:09:10.161Z,7.97
2023-11-21T18:11:37.375Z,7.94
2023-11-21T18:14:11.106Z,7.92
2023-11-21T18:16:39.403Z,7.91
2023-11-21T18:19:06.868Z,7.89
2023-11-21T18:21:37.158Z,7.81
2023-11-21T18:24:08.006Z,7.83
2023-11-21T18:26:35.286Z,7.84
2023-11-21T18:29:02.640Z,7.89
2023-11-21T18:31:32.679Z,7.85
2023-11-21T18:34:00.625Z,7.87
2023-11-21T18:36:27.683Z,7.92
2023-11-21T18:38:57.335Z,7.94
2023-11-21T18:41:25.229Z,7.96
2023-11-21T18:43:55.708Z,7.91
2023-11-21T18:46:26.914Z,7.92
2023-11-21T18:48:54.822Z,7.91
2023-11-21T18:51:22.292Z,7.90
2023-11-21T18:53:50.644Z,7.87
2023-11-21T18:56:23.139Z,7.84
2023-11-21T18:58:54.715Z,7.78
2023-11-21T19:01:41.802Z,7.77
2023-11-21T19:04:09.680Z,7.69
2023-11-21T19:06:38.932Z,7.63
2023-11-21T19:09:13.344Z,7.62
2023-11-21T19:11:40.901Z,7.55
2023-11-21T19:14:10.905Z,7.50
2023-11-21T19:16:39.622Z,7.43
2023-11-21T19:19:09.984Z,7.34
2023-11-21T19:21:37.290Z,7.23
2023-11-21T19:24:04.829Z,7.10
2023-11-21T19:26:33.360Z,7.05
2023-11-21T19:29:01.101Z,7.00
2023-11-21T19:31:28.758Z,6.98
2023-11-21T19:33:56.784Z,6.95
2023-11-21T19:36:24.305Z,6.92
2023-11-21T19:38:52.711Z,6.89
2023-11-21T19:41:22.383Z,6.96
2023-11-21T19:43:51.319Z,6.87
2023-11-21T19:46:18.926Z,6.83
2023-11-21T19:48:47.666Z,6.77
2023-11-21T19:51:17.415Z,6.69
2023-11-21T19:53:44.750Z,6.64
2023-11-21T19:56:11.814Z,6.50
2023-11-21T19:58:40.822Z,6.44
2023-11-21T20:01:11.477Z,6.31
2023-11-21T20:03:40.534Z,6.25
2023-11-21T20:06:08.491Z,6.15
2023-11-21T20:08:36.508Z,6.02
2023-11-21T20:11:04.420Z,5.92
2023-11-21T20:13:32.979Z,5.84
2023-11-21T20:16:01.261Z,5.75
2023-11-21T20:18:31.977Z,5.72
2023-11-21T20:20:59.901Z,5.69
2023-11-21T20:23:33.311Z,5.73
2023-11-21T20:26:01.862Z,5.84
2023-11-21T20:28:30.894Z,5.79
2023-11-21T20:31:03.236Z,5.77
2023-11-21T20:33:31.218Z,5.70
2023-11-21T20:36:02.961Z,5.63
2023-11-21T20:38:30.224Z,5.63
2023-11-21T20:40:58.084Z,5.66
2023-11-21T20:43:26.146Z,5.66
2023-11-21T20:45:53.707Z,5.66
2023-11-21T20:48:21.225Z,5.59
2023-11-21T20:50:48.418Z,5.69
2023-11-21T20:53:16.297Z,5.64
2023-11-21T20:55:44.000Z,5.62
2023-11-21T20:58:11.848Z,5.61
2023-11-21T21:00:39.001Z,5.56
2023-11-21T21:03:08.471Z,5.49
2023-11-21T21:05:38.979Z,5.48
2023-11-21T21:08:07.722Z,5.53
2023-11-21T21:10:35.238Z,5.48
2023-11-21T21:13:03.151Z,5.52
2023-11-21T21:15:30.319Z,5.49
2023-11-21T21:17:58.736Z,5.46
2023-11-21T21:20:25.886Z,5.52
2023-11-21T21:22:54.439Z,5.54
2023-11-21T21:25:21.576Z,5.56
2023-11-21T21:27:49.658Z,5.58
2023-11-21T21:30:16.762Z,5.69
2023-11-21T21:32:44.103Z,5.82
2023-11-21T21:35:13.081Z,5.93
2023-11-21T21:37:42.629Z,6.02
2023-11-21T21:40:10.368Z,6.09
2023-11-21T21:42:37.673Z,6.22
2023-11-21T21:45:05.108Z,6.31
2023-11-21T21:47:34.877Z,6.39
2023-11-21T21:50:01.896Z,6.44
2023-11-21T21:52:38.981Z,6.45
2023-11-21T21:55:07.050Z,6.48
2023-11-21T21:57:34.371Z,6.51
2023-11-21T22:00:08.117Z,6.50
2023-11-21T22:02:39.897Z,6.50
2023-11-21T22:05:10.103Z,6.50
2023-11-21T22:07:40.625Z,6.54
2023-11-21T22:10:09.323Z,6.58
2023-11-21T22:12:36.975Z,6.60
2023-11-21T22:15:05.951Z,6.58
2023-11-21T22:17:33.332Z,6.62
2023-11-21T22:20:00.728Z,6.66
2023-11-21T22:22:31.139Z,6.63
2023-11-21T22:24:58.085Z,6.61
2023-11-21T22:27:25.423Z,6.67
2023-11-21T22:29:52.465Z,6.69
2023-11-21T22:32:19.732Z,6.73
2023-11-21T22:34:46.921Z,6.74
2023-11-21T22:37:14.188Z,6.78
2023-11-21T22:39:42.415Z,6.81
2023-11-21T22:42:09.732Z,6.85
2023-11-21T22:44:36.642Z,6.87
2023-11-21T22:47:05.529Z,6.90
2023-11-21T22:49:32.797Z,6.91
2023-11-21T22:52:00.578Z,6.92
2023-11-21T22:54:28.336Z,6.98
2023-11-21T22:56:55.594Z,7.01
2023-11-21T22:59:22.730Z,7.00
2023-11-21T23:01:51.674Z,7.01
2023-11-21T23:04:21.939Z,7.03
2023-11-21T23:06:49.389Z,7.07
2023-11-21T23:09:20.664Z,7.07
2023-11-21T23:11:47.960Z,7.06
2023-11-21T23:14:15.217Z,7.06
2023-11-21T23:16:43.224Z,7.07
2023-11-21T23:19:18.009Z,7.06
2023-11-21T23:21:45.621Z,7.05
2023-11-21T23:24:14.393Z,7.03
2023-11-21T23:26:43.862Z,7.03
2023-11-21T23:29:11.067Z,7.03
2023-11-21T23:31:38.292Z,7.04
2023-11-21T23:34:05.889Z,7.06
2023-11-21T23:36:33.312Z,7.08
2023-11-21T23:39:00.217Z,7.08
2023-11-21T23:41:27.474Z,7.12
2023-11-21T23:43:54.460Z,7.15
2023-11-21T23:46:21.811Z,7.18
2023-11-21T23:48:48.836Z,7.20
2023-11-21T23:51:18.550Z,7.22
2023-11-21T23:53:47.902Z,7.26
2023-11-21T23:56:15.909Z,7.23
2023-11-21T23:58:42.794Z,7.24
